Athena — ZCNP — position and weather

sailwx.info

Track history (hours):
 
Tides and Currents Weather Stations Pressure Air Temp Water Temp Dewpoint Dewpoint Depression Visibility Wind Speed Wind Dir Waves Ship Positions

Athena

Last reported at 2018-Jun-20 05:55 UTC. Time now 2018-Jun-21 16:21 UTC.
Position N 45°39' E 013°44'.

Length 90 m; draft 5.7 m.

Type: Ship. MMSI: 319012000.

Date/timePositionNaut miles runAvg speedWind from/ knotsBaromVisibWave heightAir tempDewpointWater temp
2018-Jun-20 05:55N 45°39' E 013°44'1 3.2
2018-Jun-20 05:30N 45°40' E 013°43'1 2.2
2018-Jun-20 05:00N 45°39' E 013°42'5 9.0
2018-Jun-20 04:29N 45°37' E 013°36'5 9.2
2018-Jun-20 03:59N 45°34' E 013°31'611.7
2018-Jun-20 03:30N 45°31' E 013°24'612.9
2018-Jun-20 03:00N 45°27' E 013°17'612.6
2018-Jun-20 02:30N 45°22' E 013°13'713.4
2018-Jun-20 02:00N 45°15' E 013°15'713.6
2018-Jun-20 01:30N 45°08' E 013°17'  
2018-Jun-17 13:21N 37°56' E 015°38'910.4
2018-Jun-17 12:32N 38°03' E 015°34'613.0
2018-Jun-17 12:07N 38°09' E 015°35'216.0
2018-Jun-17 12:00N 38°11' E 015°35'812.4
2018-Jun-17 11:20N 38°18' E 015°40'712.4
2018-Jun-17 10:48N 38°21' E 015°32'613.1
2018-Jun-17 10:22N 38°21' E 015°24'813.1
2018-Jun-17 09:45N 38°20' E 015°14'7812.2
2018-Jun-17 03:22N 38°22' E 013°35'512.1
2018-Jun-17 02:59N 38°23' E 013°29'612.0
2018-Jun-17 02:30N 38°23' E 013°22'612.4
2018-Jun-17 02:00N 38°23' E 013°14'49112.2
2018-Jun-15 09:57N 39°21' E 002°48'613.5
2018-Jun-15 09:29N 39°25' E 002°43'713.5
2018-Jun-15 08:59N 39°31' E 002°39'1 1.9
2018-Jun-15 08:29N 39°32' E 002°39'1 2.0
2018-Jun-15 08:00N 39°31' E 002°39'0 1.0
2018-Jun-15 07:30N 39°32' E 002°39'2 3.6
2018-Jun-15 06:58N 39°33' E 002°38'0 0.5
2018-Jun-15 06:30N 39°34' E 002°38'0 0.0
2018-Jun-15 05:55N 39°34' E 002°38'0 0.0
2018-Jun-15 05:30N 39°34' E 002°38'0 0.0
2018-Jun-15 04:59N 39°34' E 002°38'0 0.0
2018-Jun-15 04:26N 39°34' E 002°38'0 0.0
2018-Jun-15 03:55N 39°34' E 002°38'0 0.0
2018-Jun-15 03:25N 39°34' E 002°38'0 0.0
2018-Jun-15 02:55N 39°34' E 002°38'0 0.0
2018-Jun-15 02:25N 39°34' E 002°38'0 0.0
2018-Jun-15 02:00N 39°34' E 002°38'0 0.0
2018-Jun-15 01:30N 39°34' E 002°38'0 0.0
2018-Jun-15 01:00N 39°34' E 002°38'0 0.0
2018-Jun-15 00:30N 39°34' E 002°38'0 0.0
2018-Jun-15 00:00N 39°34' E 002°38'0 0.0
2018-Jun-14 23:23N 39°34' E 002°38'0 0.0
2018-Jun-14 22:59N 39°34' E 002°38'0 0.0
2018-Jun-14 22:29N 39°34' E 002°38'0 0.0
2018-Jun-14 21:59N 39°34' E 002°38'0 0.0
2018-Jun-14 21:29N 39°34' E 002°38'0 0.0
2018-Jun-14 20:58N 39°34' E 002°38'0 0.0
2018-Jun-14 20:28N 39°34' E 002°38'0 0.0
2018-Jun-14 19:58N 39°34' E 002°38'0 0.0
2018-Jun-14 19:28N 39°34' E 002°38'0 0.0
2018-Jun-14 18:57N 39°34' E 002°38'0 0.0
2018-Jun-14 18:27N 39°34' E 002°38'0 0.0
2018-Jun-14 17:57N 39°34' E 002°38'0 0.0
2018-Jun-14 17:27N 39°34' E 002°38'0 0.0
2018-Jun-14 16:57N 39°34' E 002°38'0 0.0
2018-Jun-14 16:26N 39°34' E 002°38'0 0.0
2018-Jun-14 15:56N 39°34' E 002°38'0 0.0
2018-Jun-14 15:26N 39°34' E 002°38'0 0.0
2018-Jun-14 15:00N 39°34' E 002°38'0 0.0
2018-Jun-14 14:30N 39°34' E 002°38'0 0.0
2018-Jun-14 14:00N 39°34' E 002°38'0 0.0
2018-Jun-14 13:30N 39°34' E 002°38'0 0.0
2018-Jun-14 13:00N 39°34' E 002°38'0 0.0
2018-Jun-14 12:30N 39°34' E 002°38'0 0.0
2018-Jun-14 11:57N 39°34' E 002°38'0 0.0
2018-Jun-14 11:30N 39°34' E 002°38'0 0.0
2018-Jun-14 11:00N 39°34' E 002°38'0 0.0
2018-Jun-14 10:25N 39°34' E 002°38'0 0.0
2018-Jun-14 09:56N 39°34' E 002°38'0 0.0
2018-Jun-14 09:30N 39°34' E 002°38'0 0.0
2018-Jun-14 09:00N 39°34' E 002°38'0 0.0
2018-Jun-14 08:25N 39°34' E 002°38'0 0.0
2018-Jun-14 07:59N 39°34' E 002°38'0 0.0
2018-Jun-14 07:30N 39°34' E 002°38'0 0.0
2018-Jun-14 07:00N 39°34' E 002°38'0 0.0
2018-Jun-14 06:30N 39°34' E 002°38'0 0.0
2018-Jun-14 05:56N 39°34' E 002°38'0 0.0
2018-Jun-14 05:26N 39°34' E 002°38'0 0.0
2018-Jun-14 04:56N 39°34' E 002°38'0 0.0
2018-Jun-14 04:29N 39°34' E 002°38'0 0.0
2018-Jun-14 04:00N 39°34' E 002°38'0 0.0
2018-Jun-14 03:30N 39°34' E 002°38'0 0.0
2018-Jun-14 03:00N 39°34' E 002°38'0 0.0
2018-Jun-14 02:28N 39°34' E 002°38'0 0.0
2018-Jun-14 01:58N 39°34' E 002°38'0 0.0
2018-Jun-14 01:30N 39°34' E 002°38'0 0.0
2018-Jun-14 01:00N 39°34' E 002°38'0 0.0
2018-Jun-14 00:30N 39°34' E 002°38'0 0.0
2018-Jun-14 00:00N 39°34' E 002°38'0 0.0
2018-Jun-13 23:29N 39°34' E 002°38'0 0.0
2018-Jun-13 23:00N 39°34' E 002°38'0 0.0
2018-Jun-13 22:30N 39°34' E 002°38'0 0.0
2018-Jun-13 22:00N 39°34' E 002°38'0 0.0
2018-Jun-13 21:24N 39°34' E 002°38'0 0.0
2018-Jun-13 21:00N 39°34' E 002°38'0 0.0
2018-Jun-13 20:29N 39°34' E 002°38'0 0.0
2018-Jun-13 20:00N 39°34' E 002°38'0 0.0
2018-Jun-13 19:31N 39°34' E 002°38'0 0.0
2018-Jun-13 19:00N 39°34' E 002°38'0 0.0
2018-Jun-13 18:30N 39°34' E 002°38'0 0.0
2018-Jun-13 18:00N 39°34' E 002°38'0 0.0
2018-Jun-13 17:29N 39°34' E 002°38'0 0.0
2018-Jun-13 16:59N 39°34' E 002°38'0 0.0
2018-Jun-13 16:30N 39°34' E 002°38'0 0.0
2018-Jun-13 16:00N 39°34' E 002°38'0 0.0
2018-Jun-13 15:30N 39°34' E 002°38'0 0.0
2018-Jun-13 15:00N 39°34' E 002°38'0 0.0
2018-Jun-13 14:30N 39°34' E 002°38'0 0.0
2018-Jun-13 14:00N 39°34' E 002°38'0 0.0
2018-Jun-13 13:30N 39°34' E 002°38'0 0.0
2018-Jun-13 12:55N 39°34' E 002°38'0 0.1
2018-Jun-13 12:29N 39°34' E 002°38'0 0.0
2018-Jun-13 12:00N 39°34' E 002°38'0 0.0
2018-Jun-13 11:25N 39°34' E 002°38'0 0.0
2018-Jun-13 10:56N 39°34' E 002°38'0 0.0
2018-Jun-13 10:26N 39°34' E 002°38'0 0.0
2018-Jun-13 09:50N 39°34' E 002°38'0 0.0
2018-Jun-13 09:30N 39°34' E 002°38'0 0.0
2018-Jun-13 08:55N 39°34' E 002°38'0 0.0
2018-Jun-13 08:27N 39°34' E 002°38'0 0.0
2018-Jun-13 07:58N 39°34' E 002°38'0 0.0
2018-Jun-13 07:30N 39°34' E 002°38'0 0.0
2018-Jun-13 07:00N 39°34' E 002°38'0 0.0
2018-Jun-13 06:25N 39°34' E 002°38'0 0.0
2018-Jun-13 05:55N 39°34' E 002°38'0 0.0
2018-Jun-13 05:18N 39°34' E 002°38'0 0.0
2018-Jun-13 05:00N 39°34' E 002°38'0 0.0
2018-Jun-13 04:30N 39°34' E 002°38'0 0.0
2018-Jun-13 03:54N 39°34' E 002°38'0 0.0
2018-Jun-13 03:30N 39°34' E 002°38'0 0.0
2018-Jun-13 03:00N 39°34' E 002°38'0 0.0
2018-Jun-13 02:29N 39°34' E 002°38'0 0.0
2018-Jun-13 01:59N 39°34' E 002°38'0 0.0
2018-Jun-13 01:29N 39°34' E 002°38'0 0.0
2018-Jun-13 00:59N 39°34' E 002°38'0 0.0
2018-Jun-13 00:28N 39°34' E 002°38'0 0.0
2018-Jun-12 23:58N 39°34' E 002°38'0 0.0
2018-Jun-12 23:28N 39°34' E 002°38'0 0.0
2018-Jun-12 22:58N 39°34' E 002°38'0 0.0
2018-Jun-12 22:28N 39°34' E 002°38'0 0.0
2018-Jun-12 21:57N 39°34' E 002°38'0 0.0
2018-Jun-12 21:27N 39°34' E 002°38'0 0.0
2018-Jun-12 20:57N 39°34' E 002°38'0 0.0
2018-Jun-12 20:27N 39°34' E 002°38'0 0.0
2018-Jun-12 19:56N 39°34' E 002°38'0 0.0
2018-Jun-12 19:26N 39°34' E 002°38'0 0.0
2018-Jun-12 18:47N 39°34' E 002°38'0 0.0
2018-Jun-12 18:26N 39°34' E 002°38'0 0.0
2018-Jun-12 17:59N 39°34' E 002°38'0 0.0
2018-Jun-12 17:25N 39°34' E 002°38'0 0.0
2018-Jun-12 16:55N 39°34' E 002°38'0 0.0
2018-Jun-12 16:25N 39°34' E 002°38'0 0.0
2018-Jun-12 15:55N 39°34' E 002°38'0 0.0
2018-Jun-12 15:24N 39°34' E 002°38'0 0.0
2018-Jun-12 15:00N 39°34' E 002°38'0 0.0
2018-Jun-12 14:30N 39°34' E 002°38'0 0.0
2018-Jun-12 14:00N 39°34' E 002°38'0 0.0
2018-Jun-12 13:30N 39°34' E 002°38'0 0.0
2018-Jun-12 12:59N 39°34' E 002°38'0 0.0
2018-Jun-12 12:29N 39°34' E 002°38'0 0.0
2018-Jun-12 11:59N 39°34' E 002°38'1 1.8
2018-Jun-12 11:30N 39°33' E 002°39'2 4.1
2018-Jun-12 11:00N 39°31' E 002°38'2 3.3
2018-Jun-12 10:30N 39°31' E 002°40'1 2.3
2018-Jun-12 10:00N 39°31' E 002°39'2 4.7
2018-Jun-12 09:30N 39°33' E 002°39'0 0.8
2018-Jun-12 09:00N 39°33' E 002°39'1 1.7
2018-Jun-12 08:30N 39°33' E 002°38'4 8.4
2018-Jun-12 08:00N 39°28' E 002°39'510.4
2018-Jun-12 07:30N 39°34' E 002°38'0 0.2
2018-Jun-12 07:00N 39°34' E 002°38'0 0.0
2018-Jun-12 06:30N 39°34' E 002°38'0 0.0
2018-Jun-12 05:59N 39°34' E 002°38'0 0.0
2018-Jun-12 05:27N 39°34' E 002°38'0 0.0
2018-Jun-12 04:54N 39°34' E 002°38'0 0.0
2018-Jun-12 04:30N 39°34' E 002°38'0 0.0
2018-Jun-12 03:59N 39°34' E 002°38'0 0.0
2018-Jun-12 03:29N 39°34' E 002°38'0 0.0
2018-Jun-12 02:43N 39°34' E 002°38'0 0.0
2018-Jun-12 02:30N 39°34' E 002°38'0 0.0
2018-Jun-12 02:00N 39°34' E 002°38'0 0.0
2018-Jun-12 01:30N 39°34' E 002°38'0 0.0
2018-Jun-12 01:00N 39°34' E 002°38'0 0.0
2018-Jun-12 00:30N 39°34' E 002°38'0 0.0
2018-Jun-11 23:57N 39°34' E 002°38'0 0.0
2018-Jun-11 23:30N 39°34' E 002°38'0 0.0
2018-Jun-11 22:58N 39°34' E 002°38'0 0.0
2018-Jun-11 22:29N 39°34' E 002°38'0 0.0
2018-Jun-11 22:00N 39°34' E 002°38'0 0.0
2018-Jun-11 21:30N 39°34' E 002°38'0 0.0
2018-Jun-11 21:00N 39°34' E 002°38'0 0.0
2018-Jun-11 20:30N 39°34' E 002°38'0 0.0
2018-Jun-11 20:00N 39°34' E 002°38'0 0.0
2018-Jun-11 19:30N 39°34' E 002°38'0 0.0
2018-Jun-11 19:00N 39°34' E 002°38'0 0.0
2018-Jun-11 18:30N 39°34' E 002°38'0 0.0
2018-Jun-11 17:59N 39°34' E 002°38'0 0.0
2018-Jun-11 17:30N 39°34' E 002°38'0 0.0
2018-Jun-11 17:00N 39°34' E 002°38'0 0.0
2018-Jun-11 16:30N 39°34' E 002°38'0 0.0
2018-Jun-11 16:00N 39°34' E 002°38'0 0.0
2018-Jun-11 15:30N 39°34' E 002°38'0 0.0
2018-Jun-11 15:00N 39°34' E 002°38'0 0.0
2018-Jun-11 14:30N 39°34' E 002°38'0 0.0
2018-Jun-11 13:59N 39°34' E 002°38'0 0.0
2018-Jun-11 13:30N 39°34' E 002°38'0 0.0
2018-Jun-11 13:00N 39°34' E 002°38'0 0.0
2018-Jun-11 12:28N 39°34' E 002°38'0 0.0
2018-Jun-11 12:00N 39°34' E 002°38'0 0.0
2018-Jun-11 11:30N 39°34' E 002°38'0 0.0
2018-Jun-11 10:55N 39°34' E 002°38'0 0.0
2018-Jun-11 10:30N 39°34' E 002°38'0 0.0
2018-Jun-11 09:58N 39°34' E 002°38'0 0.0
2018-Jun-11 09:28N 39°34' E 002°38'0 0.0
2018-Jun-11 09:00N 39°34' E 002°38'0 0.0
2018-Jun-11 08:26N 39°34' E 002°38'0 0.0
2018-Jun-11 07:55N 39°34' E 002°38'0 0.0
2018-Jun-11 07:19N 39°34' E 002°38'0 0.0
2018-Jun-11 06:55N 39°34' E 002°38'0 0.0
2018-Jun-11 06:25N 39°34' E 002°38'0 0.0
2018-Jun-11 05:55N 39°34' E 002°38'0 0.0
2018-Jun-11 05:30N 39°34' E 002°38'0 0.0
2018-Jun-11 04:42N 39°34' E 002°38'0 0.0
2018-Jun-11 04:30N 39°34' E 002°38'0 0.0
2018-Jun-11 03:54N 39°34' E 002°38'0 0.0
2018-Jun-11 03:30N 39°34' E 002°38'0 0.0
2018-Jun-11 02:59N 39°34' E 002°38'0 0.0
2018-Jun-11 02:29N 39°34' E 002°38'0 0.0
2018-Jun-11 01:53N 39°34' E 002°38'0 0.0
2018-Jun-11 01:29N 39°34' E 002°38'0 0.0
2018-Jun-11 00:58N 39°34' E 002°38'0 0.0
2018-Jun-11 00:28N 39°34' E 002°38'0 0.0
2018-Jun-10 23:58N 39°34' E 002°38'0 0.0
2018-Jun-10 23:28N 39°34' E 002°38'0 0.0
2018-Jun-10 22:58N 39°34' E 002°38'0 0.0
2018-Jun-10 22:27N 39°34' E 002°38'0 0.0
2018-Jun-10 21:45N 39°34' E 002°38'0 0.0
2018-Jun-10 21:27N 39°34' E 002°38'0 0.0
2018-Jun-10 20:57N 39°34' E 002°38'0 0.0
2018-Jun-10 20:26N 39°34' E 002°38'0 0.0
2018-Jun-10 19:56N 39°34' E 002°38'0 0.0
2018-Jun-10 19:26N 39°34' E 002°38'0 0.0
2018-Jun-10 18:56N 39°34' E 002°38'0 0.0
2018-Jun-10 18:26N 39°34' E 002°38'0 0.0
2018-Jun-10 17:55N 39°34' E 002°38'0 0.0
2018-Jun-10 17:25N 39°34' E 002°38'0 0.0
2018-Jun-10 16:55N 39°34' E 002°38'0 0.0
2018-Jun-10 16:25N 39°34' E 002°38'0 0.0
2018-Jun-10 15:55N 39°34' E 002°38'0 0.0
2018-Jun-10 15:30N 39°34' E 002°38'0 0.0
2018-Jun-10 15:00N 39°34' E 002°38'0 0.0
2018-Jun-10 14:00N 39°34' E 002°38'0 0.0
2018-Jun-10 13:30N 39°34' E 002°38'0 0.0
2018-Jun-10 12:59N 39°34' E 002°38'0 0.0
2018-Jun-10 12:29N 39°34' E 002°38'0 0.0
2018-Jun-10 11:59N 39°34' E 002°38'0 0.0
2018-Jun-10 11:29N 39°34' E 002°38'0 0.0
2018-Jun-10 10:58N 39°34' E 002°38'0 0.0
2018-Jun-10 10:28N 39°34' E 002°38'0 0.0
2018-Jun-10 09:58N 39°34' E 002°38'0 0.0
2018-Jun-10 09:28N 39°34' E 002°38'0 0.0
2018-Jun-10 08:57N 39°34' E 002°38'0 0.0
2018-Jun-10 08:27N 39°34' E 002°38'0 0.0
2018-Jun-10 07:57N 39°34' E 002°38'0 0.0
2018-Jun-10 07:27N 39°34' E 002°38'0 0.0
2018-Jun-10 06:57N 39°34' E 002°38'0 0.0
2018-Jun-10 06:26N 39°34' E 002°38'0 0.0
2018-Jun-10 05:56N 39°34' E 002°38'  
Track history (hours):
 
Tides and Currents Weather Stations Pressure Air Temp Water Temp Dewpoint Dewpoint Depression Visibility Wind Speed Wind Dir Waves Ship Positions

Athena

Last reported at 2018-Jun-20 05:55 UTC. Time now 2018-Jun-21 16:21 UTC.
Position N 45°39' E 013°44'.

Length 90 m; draft 5.7 m.

Type: Ship. MMSI: 319012000.

Date/timePositionNaut miles runAvg speedWind from/ knotsBaromVisibWave heightAir tempDewpointWater temp
2018-Jun-20 05:55N 45°39' E 013°44'1 3.2
2018-Jun-20 05:30N 45°40' E 013°43'1 2.2
2018-Jun-20 05:00N 45°39' E 013°42'5 9.0
2018-Jun-20 04:29N 45°37' E 013°36'5 9.2
2018-Jun-20 03:59N 45°34' E 013°31'611.7
2018-Jun-20 03:30N 45°31' E 013°24'612.9
2018-Jun-20 03:00N 45°27' E 013°17'612.6
2018-Jun-20 02:30N 45°22' E 013°13'713.4
2018-Jun-20 02:00N 45°15' E 013°15'713.6
2018-Jun-20 01:30N 45°08' E 013°17'  
2018-Jun-17 13:21N 37°56' E 015°38'910.4
2018-Jun-17 12:32N 38°03' E 015°34'613.0
2018-Jun-17 12:07N 38°09' E 015°35'216.0
2018-Jun-17 12:00N 38°11' E 015°35'812.4
2018-Jun-17 11:20N 38°18' E 015°40'712.4
2018-Jun-17 10:48N 38°21' E 015°32'613.1
2018-Jun-17 10:22N 38°21' E 015°24'813.1
2018-Jun-17 09:45N 38°20' E 015°14'7812.2
2018-Jun-17 03:22N 38°22' E 013°35'512.1
2018-Jun-17 02:59N 38°23' E 013°29'612.0
2018-Jun-17 02:30N 38°23' E 013°22'612.4
2018-Jun-17 02:00N 38°23' E 013°14'49112.2
2018-Jun-15 09:57N 39°21' E 002°48'613.5
2018-Jun-15 09:29N 39°25' E 002°43'713.5
2018-Jun-15 08:59N 39°31' E 002°39'1 1.9
2018-Jun-15 08:29N 39°32' E 002°39'1 2.0
2018-Jun-15 08:00N 39°31' E 002°39'0 1.0
2018-Jun-15 07:30N 39°32' E 002°39'2 3.6
2018-Jun-15 06:58N 39°33' E 002°38'0 0.5
2018-Jun-15 06:30N 39°34' E 002°38'0 0.0
2018-Jun-15 05:55N 39°34' E 002°38'0 0.0
2018-Jun-15 05:30N 39°34' E 002°38'0 0.0
2018-Jun-15 04:59N 39°34' E 002°38'0 0.0
2018-Jun-15 04:26N 39°34' E 002°38'0 0.0
2018-Jun-15 03:55N 39°34' E 002°38'0 0.0
2018-Jun-15 03:25N 39°34' E 002°38'0 0.0
2018-Jun-15 02:55N 39°34' E 002°38'0 0.0
2018-Jun-15 02:25N 39°34' E 002°38'0 0.0
2018-Jun-15 02:00N 39°34' E 002°38'0 0.0
2018-Jun-15 01:30N 39°34' E 002°38'0 0.0
2018-Jun-15 01:00N 39°34' E 002°38'0 0.0
2018-Jun-15 00:30N 39°34' E 002°38'0 0.0
2018-Jun-15 00:00N 39°34' E 002°38'0 0.0
2018-Jun-14 23:23N 39°34' E 002°38'0 0.0
2018-Jun-14 22:59N 39°34' E 002°38'0 0.0
2018-Jun-14 22:29N 39°34' E 002°38'0 0.0
2018-Jun-14 21:59N 39°34' E 002°38'0 0.0
2018-Jun-14 21:29N 39°34' E 002°38'0 0.0
2018-Jun-14 20:58N 39°34' E 002°38'0 0.0
2018-Jun-14 20:28N 39°34' E 002°38'0 0.0
2018-Jun-14 19:58N 39°34' E 002°38'0 0.0
2018-Jun-14 19:28N 39°34' E 002°38'0 0.0
2018-Jun-14 18:57N 39°34' E 002°38'0 0.0
2018-Jun-14 18:27N 39°34' E 002°38'0 0.0
2018-Jun-14 17:57N 39°34' E 002°38'0 0.0
2018-Jun-14 17:27N 39°34' E 002°38'0 0.0
2018-Jun-14 16:57N 39°34' E 002°38'0 0.0
2018-Jun-14 16:26N 39°34' E 002°38'0 0.0
2018-Jun-14 15:56N 39°34' E 002°38'0 0.0
2018-Jun-14 15:26N 39°34' E 002°38'0 0.0
2018-Jun-14 15:00N 39°34' E 002°38'0 0.0
2018-Jun-14 14:30N 39°34' E 002°38'0 0.0
2018-Jun-14 14:00N 39°34' E 002°38'0 0.0
2018-Jun-14 13:30N 39°34' E 002°38'0 0.0
2018-Jun-14 13:00N 39°34' E 002°38'0 0.0
2018-Jun-14 12:30N 39°34' E 002°38'0 0.0
2018-Jun-14 11:57N 39°34' E 002°38'0 0.0
2018-Jun-14 11:30N 39°34' E 002°38'0 0.0
2018-Jun-14 11:00N 39°34' E 002°38'0 0.0
2018-Jun-14 10:25N 39°34' E 002°38'0 0.0
2018-Jun-14 09:56N 39°34' E 002°38'0 0.0
2018-Jun-14 09:30N 39°34' E 002°38'0 0.0
2018-Jun-14 09:00N 39°34' E 002°38'0 0.0
2018-Jun-14 08:25N 39°34' E 002°38'0 0.0
2018-Jun-14 07:59N 39°34' E 002°38'0 0.0
2018-Jun-14 07:30N 39°34' E 002°38'0 0.0
2018-Jun-14 07:00N 39°34' E 002°38'0 0.0
2018-Jun-14 06:30N 39°34' E 002°38'0 0.0
2018-Jun-14 05:56N 39°34' E 002°38'0 0.0
2018-Jun-14 05:26N 39°34' E 002°38'0 0.0
2018-Jun-14 04:56N 39°34' E 002°38'0 0.0
2018-Jun-14 04:29N 39°34' E 002°38'0 0.0
2018-Jun-14 04:00N 39°34' E 002°38'0 0.0
2018-Jun-14 03:30N 39°34' E 002°38'0 0.0
2018-Jun-14 03:00N 39°34' E 002°38'0 0.0
2018-Jun-14 02:28N 39°34' E 002°38'0 0.0
2018-Jun-14 01:58N 39°34' E 002°38'0 0.0
2018-Jun-14 01:30N 39°34' E 002°38'0 0.0
2018-Jun-14 01:00N 39°34' E 002°38'0 0.0
2018-Jun-14 00:30N 39°34' E 002°38'0 0.0
2018-Jun-14 00:00N 39°34' E 002°38'0 0.0
2018-Jun-13 23:29N 39°34' E 002°38'0 0.0
2018-Jun-13 23:00N 39°34' E 002°38'0 0.0
2018-Jun-13 22:30N 39°34' E 002°38'0 0.0
2018-Jun-13 22:00N 39°34' E 002°38'0 0.0
2018-Jun-13 21:24N 39°34' E 002°38'0 0.0
2018-Jun-13 21:00N 39°34' E 002°38'0 0.0
2018-Jun-13 20:29N 39°34' E 002°38'0 0.0
2018-Jun-13 20:00N 39°34' E 002°38'0 0.0
2018-Jun-13 19:31N 39°34' E 002°38'0 0.0
2018-Jun-13 19:00N 39°34' E 002°38'0 0.0
2018-Jun-13 18:30N 39°34' E 002°38'0 0.0
2018-Jun-13 18:00N 39°34' E 002°38'0 0.0
2018-Jun-13 17:29N 39°34' E 002°38'0 0.0
2018-Jun-13 16:59N 39°34' E 002°38'0 0.0
2018-Jun-13 16:30N 39°34' E 002°38'0 0.0
2018-Jun-13 16:00N 39°34' E 002°38'0 0.0
2018-Jun-13 15:30N 39°34' E 002°38'0 0.0
2018-Jun-13 15:00N 39°34' E 002°38'0 0.0
2018-Jun-13 14:30N 39°34' E 002°38'0 0.0
2018-Jun-13 14:00N 39°34' E 002°38'0 0.0
2018-Jun-13 13:30N 39°34' E 002°38'0 0.0
2018-Jun-13 12:55N 39°34' E 002°38'0 0.1
2018-Jun-13 12:29N 39°34' E 002°38'0 0.0
2018-Jun-13 12:00N 39°34' E 002°38'0 0.0
2018-Jun-13 11:25N 39°34' E 002°38'0 0.0
2018-Jun-13 10:56N 39°34' E 002°38'0 0.0
2018-Jun-13 10:26N 39°34' E 002°38'0 0.0
2018-Jun-13 09:50N 39°34' E 002°38'0 0.0
2018-Jun-13 09:30N 39°34' E 002°38'0 0.0
2018-Jun-13 08:55N 39°34' E 002°38'0 0.0
2018-Jun-13 08:27N 39°34' E 002°38'0 0.0
2018-Jun-13 07:58N 39°34' E 002°38'0 0.0
2018-Jun-13 07:30N 39°34' E 002°38'0 0.0
2018-Jun-13 07:00N 39°34' E 002°38'0 0.0
2018-Jun-13 06:25N 39°34' E 002°38'0 0.0
2018-Jun-13 05:55N 39°34' E 002°38'0 0.0
2018-Jun-13 05:18N 39°34' E 002°38'0 0.0
2018-Jun-13 05:00N 39°34' E 002°38'0 0.0
2018-Jun-13 04:30N 39°34' E 002°38'0 0.0
2018-Jun-13 03:54N 39°34' E 002°38'0 0.0
2018-Jun-13 03:30N 39°34' E 002°38'0 0.0
2018-Jun-13 03:00N 39°34' E 002°38'0 0.0
2018-Jun-13 02:29N 39°34' E 002°38'0 0.0
2018-Jun-13 01:59N 39°34' E 002°38'0 0.0
2018-Jun-13 01:29N 39°34' E 002°38'0 0.0
2018-Jun-13 00:59N 39°34' E 002°38'0 0.0
2018-Jun-13 00:28N 39°34' E 002°38'0 0.0
2018-Jun-12 23:58N 39°34' E 002°38'0 0.0
2018-Jun-12 23:28N 39°34' E 002°38'0 0.0
2018-Jun-12 22:58N 39°34' E 002°38'0 0.0
2018-Jun-12 22:28N 39°34' E 002°38'0 0.0
2018-Jun-12 21:57N 39°34' E 002°38'0 0.0
2018-Jun-12 21:27N 39°34' E 002°38'0 0.0
2018-Jun-12 20:57N 39°34' E 002°38'0 0.0
2018-Jun-12 20:27N 39°34' E 002°38'0 0.0
2018-Jun-12 19:56N 39°34' E 002°38'0 0.0
2018-Jun-12 19:26N 39°34' E 002°38'0 0.0
2018-Jun-12 18:47N 39°34' E 002°38'0 0.0
2018-Jun-12 18:26N 39°34' E 002°38'0 0.0
2018-Jun-12 17:59N 39°34' E 002°38'0 0.0
2018-Jun-12 17:25N 39°34' E 002°38'0 0.0
2018-Jun-12 16:55N 39°34' E 002°38'0 0.0
2018-Jun-12 16:25N 39°34' E 002°38'0 0.0
2018-Jun-12 15:55N 39°34' E 002°38'0 0.0
2018-Jun-12 15:24N 39°34' E 002°38'0 0.0
2018-Jun-12 15:00N 39°34' E 002°38'0 0.0
2018-Jun-12 14:30N 39°34' E 002°38'0 0.0
2018-Jun-12 14:00N 39°34' E 002°38'0 0.0
2018-Jun-12 13:30N 39°34' E 002°38'0 0.0
2018-Jun-12 12:59N 39°34' E 002°38'0 0.0
2018-Jun-12 12:29N 39°34' E 002°38'0 0.0
2018-Jun-12 11:59N 39°34' E 002°38'1 1.8
2018-Jun-12 11:30N 39°33' E 002°39'2 4.1
2018-Jun-12 11:00N 39°31' E 002°38'2 3.3
2018-Jun-12 10:30N 39°31' E 002°40'1 2.3
2018-Jun-12 10:00N 39°31' E 002°39'2 4.7
2018-Jun-12 09:30N 39°33' E 002°39'0 0.8
2018-Jun-12 09:00N 39°33' E 002°39'1 1.7
2018-Jun-12 08:30N 39°33' E 002°38'4 8.4
2018-Jun-12 08:00N 39°28' E 002°39'510.4
2018-Jun-12 07:30N 39°34' E 002°38'0 0.2
2018-Jun-12 07:00N 39°34' E 002°38'0 0.0
2018-Jun-12 06:30N 39°34' E 002°38'0 0.0
2018-Jun-12 05:59N 39°34' E 002°38'0 0.0
2018-Jun-12 05:27N 39°34' E 002°38'0 0.0
2018-Jun-12 04:54N 39°34' E 002°38'0 0.0
2018-Jun-12 04:30N 39°34' E 002°38'0 0.0
2018-Jun-12 03:59N 39°34' E 002°38'0 0.0
2018-Jun-12 03:29N 39°34' E 002°38'0 0.0
2018-Jun-12 02:43N 39°34' E 002°38'0 0.0
2018-Jun-12 02:30N 39°34' E 002°38'0 0.0
2018-Jun-12 02:00N 39°34' E 002°38'0 0.0
2018-Jun-12 01:30N 39°34' E 002°38'0 0.0
2018-Jun-12 01:00N 39°34' E 002°38'0 0.0
2018-Jun-12 00:30N 39°34' E 002°38'0 0.0
2018-Jun-11 23:57N 39°34' E 002°38'0 0.0
2018-Jun-11 23:30N 39°34' E 002°38'0 0.0
2018-Jun-11 22:58N 39°34' E 002°38'0 0.0
2018-Jun-11 22:29N 39°34' E 002°38'0 0.0
2018-Jun-11 22:00N 39°34' E 002°38'0 0.0
2018-Jun-11 21:30N 39°34' E 002°38'0 0.0
2018-Jun-11 21:00N 39°34' E 002°38'0 0.0
2018-Jun-11 20:30N 39°34' E 002°38'0 0.0
2018-Jun-11 20:00N 39°34' E 002°38'0 0.0
2018-Jun-11 19:30N 39°34' E 002°38'0 0.0
2018-Jun-11 19:00N 39°34' E 002°38'0 0.0
2018-Jun-11 18:30N 39°34' E 002°38'0 0.0
2018-Jun-11 17:59N 39°34' E 002°38'0 0.0
2018-Jun-11 17:30N 39°34' E 002°38'0 0.0
2018-Jun-11 17:00N 39°34' E 002°38'0 0.0
2018-Jun-11 16:30N 39°34' E 002°38'0 0.0
2018-Jun-11 16:00N 39°34' E 002°38'0 0.0
2018-Jun-11 15:30N 39°34' E 002°38'0 0.0
2018-Jun-11 15:00N 39°34' E 002°38'0 0.0
2018-Jun-11 14:30N 39°34' E 002°38'0 0.0
2018-Jun-11 13:59N 39°34' E 002°38'0 0.0
2018-Jun-11 13:30N 39°34' E 002°38'0 0.0
2018-Jun-11 13:00N 39°34' E 002°38'0 0.0
2018-Jun-11 12:28N 39°34' E 002°38'0 0.0
2018-Jun-11 12:00N 39°34' E 002°38'0 0.0
2018-Jun-11 11:30N 39°34' E 002°38'0 0.0
2018-Jun-11 10:55N 39°34' E 002°38'0 0.0
2018-Jun-11 10:30N 39°34' E 002°38'0 0.0
2018-Jun-11 09:58N 39°34' E 002°38'0 0.0
2018-Jun-11 09:28N 39°34' E 002°38'0 0.0
2018-Jun-11 09:00N 39°34' E 002°38'0 0.0
2018-Jun-11 08:26N 39°34' E 002°38'0 0.0
2018-Jun-11 07:55N 39°34' E 002°38'0 0.0
2018-Jun-11 07:19N 39°34' E 002°38'0 0.0
2018-Jun-11 06:55N 39°34' E 002°38'0 0.0
2018-Jun-11 06:25N 39°34' E 002°38'0 0.0
2018-Jun-11 05:55N 39°34' E 002°38'0 0.0
2018-Jun-11 05:30N 39°34' E 002°38'0 0.0
2018-Jun-11 04:42N 39°34' E 002°38'0 0.0
2018-Jun-11 04:30N 39°34' E 002°38'0 0.0
2018-Jun-11 03:54N 39°34' E 002°38'0 0.0
2018-Jun-11 03:30N 39°34' E 002°38'0 0.0
2018-Jun-11 02:59N 39°34' E 002°38'0 0.0
2018-Jun-11 02:29N 39°34' E 002°38'0 0.0
2018-Jun-11 01:53N 39°34' E 002°38'0 0.0
2018-Jun-11 01:29N 39°34' E 002°38'0 0.0
2018-Jun-11 00:58N 39°34' E 002°38'0 0.0
2018-Jun-11 00:28N 39°34' E 002°38'0 0.0
2018-Jun-10 23:58N 39°34' E 002°38'0 0.0
2018-Jun-10 23:28N 39°34' E 002°38'0 0.0
2018-Jun-10 22:58N 39°34' E 002°38'0 0.0
2018-Jun-10 22:27N 39°34' E 002°38'0 0.0
2018-Jun-10 21:45N 39°34' E 002°38'0 0.0
2018-Jun-10 21:27N 39°34' E 002°38'0 0.0
2018-Jun-10 20:57N 39°34' E 002°38'0 0.0
2018-Jun-10 20:26N 39°34' E 002°38'0 0.0
2018-Jun-10 19:56N 39°34' E 002°38'0 0.0
2018-Jun-10 19:26N 39°34' E 002°38'0 0.0
2018-Jun-10 18:56N 39°34' E 002°38'0 0.0
2018-Jun-10 18:26N 39°34' E 002°38'0 0.0
2018-Jun-10 17:55N 39°34' E 002°38'0 0.0
2018-Jun-10 17:25N 39°34' E 002°38'0 0.0
2018-Jun-10 16:55N 39°34' E 002°38'0 0.0
2018-Jun-10 16:25N 39°34' E 002°38'0 0.0
2018-Jun-10 15:55N 39°34' E 002°38'0 0.0
2018-Jun-10 15:30N 39°34' E 002°38'0 0.0
2018-Jun-10 15:00N 39°34' E 002°38'0 0.0
2018-Jun-10 14:00N 39°34' E 002°38'0 0.0
2018-Jun-10 13:30N 39°34' E 002°38'0 0.0
2018-Jun-10 12:59N 39°34' E 002°38'0 0.0
2018-Jun-10 12:29N 39°34' E 002°38'0 0.0
2018-Jun-10 11:59N 39°34' E 002°38'0 0.0
2018-Jun-10 11:29N 39°34' E 002°38'0 0.0
2018-Jun-10 10:58N 39°34' E 002°38'0 0.0
2018-Jun-10 10:28N 39°34' E 002°38'0 0.0
2018-Jun-10 09:58N 39°34' E 002°38'0 0.0
2018-Jun-10 09:28N 39°34' E 002°38'0 0.0
2018-Jun-10 08:57N 39°34' E 002°38'0 0.0
2018-Jun-10 08:27N 39°34' E 002°38'0 0.0
2018-Jun-10 07:57N 39°34' E 002°38'0 0.0
2018-Jun-10 07:27N 39°34' E 002°38'0 0.0
2018-Jun-10 06:57N 39°34' E 002°38'0 0.0
2018-Jun-10 06:26N 39°34' E 002°38'0 0.0
2018-Jun-10 05:56N 39°34' E 002°38'  

Dump ship's entire track history